createdAt,value
2023-02-27T00:00:35.965Z,100993.48
2023-02-27T00:01:58.823Z,100996.71
2023-02-27T00:03:01.965Z,100994.70
2023-02-27T00:04:05.330Z,101001.95
2023-02-27T00:05:08.598Z,101002.90
2023-02-27T00:06:11.465Z,101003.31
2023-02-27T00:07:14.360Z,101006.13
2023-02-27T00:08:17.219Z,101010.26
2023-02-27T00:09:20.117Z,101008.54
2023-02-27T00:10:23.452Z,101012.46
2023-02-27T00:11:26.578Z,101013.27
2023-02-27T00:12:31.144Z,101013.06
2023-02-27T00:13:34.017Z,101011.50
2023-02-27T00:14:36.889Z,101012.44
2023-02-27T00:15:41.164Z,101013.17
2023-02-27T00:16:44.104Z,101013.02
2023-02-27T00:17:47.018Z,101015.29
2023-02-27T00:18:50.081Z,101016.58
2023-02-27T00:19:52.945Z,101021.45
2023-02-27T00:20:55.816Z,101025.61
2023-02-27T00:21:58.683Z,101019.50
2023-02-27T00:23:01.536Z,101023.40
2023-02-27T00:24:04.790Z,101027.69
2023-02-27T00:25:08.434Z,101024.04
2023-02-27T00:26:11.390Z,101025.09
2023-02-27T00:27:14.615Z,101025.67
2023-02-27T00:28:19.181Z,101025.44
2023-02-27T00:29:22.356Z,101026.91
2023-02-27T00:30:28.126Z,101020.13
2023-02-27T00:31:31.101Z,101024.62
2023-02-27T00:32:36.916Z,101022.77
2023-02-27T00:33:39.944Z,101025.02
2023-02-27T00:34:45.267Z,101030.20
2023-02-27T00:35:59.197Z,101029.20
2023-02-27T00:37:03.950Z,101032.79
2023-02-27T00:38:06.925Z,101029.90
2023-02-27T00:39:09.916Z,101027.83
2023-02-27T00:40:14.008Z,101032.32
2023-02-27T00:41:16.989Z,101032.15
2023-02-27T00:42:19.876Z,101030.72
2023-02-27T00:43:22.742Z,101031.63
2023-02-27T00:44:26.114Z,101031.77
2023-02-27T00:45:29.108Z,101031.37
2023-02-27T00:46:32.041Z,101033.49
2023-02-27T00:47:35.367Z,101034.92
2023-02-27T00:48:38.225Z,101033.20
2023-02-27T00:49:41.167Z,101032.83
2023-02-27T00:50:44.899Z,101027.89
2023-02-27T00:51:48.244Z,101022.70
2023-02-27T00:52:51.131Z,101025.95
2023-02-27T00:53:54.002Z,101026.27
2023-02-27T00:54:57.312Z,101029.96
2023-02-27T00:56:00.351Z,101028.00
2023-02-27T00:57:03.529Z,101024.02
2023-02-27T00:58:06.387Z,101023.01
2023-02-27T00:59:09.294Z,101025.11
2023-02-27T01:00:12.734Z,101028.66
2023-02-27T01:01:15.789Z,101033.90
2023-02-27T01:02:19.172Z,101039.18
2023-02-27T01:03:22.041Z,101031.55
2023-02-27T01:04:25.277Z,101031.59
2023-02-27T01:05:29.530Z,101033.15
2023-02-27T01:06:35.639Z,101039.62
2023-02-27T01:07:38.765Z,101031.77
2023-02-27T01:08:42.375Z,101032.64
2023-02-27T01:09:45.316Z,101029.16
2023-02-27T01:10:48.179Z,101029.70
2023-02-27T01:11:51.588Z,101030.92
2023-02-27T01:12:54.526Z,101029.41
2023-02-27T01:13:57.476Z,101030.18
2023-02-27T01:15:04.001Z,101035.64
2023-02-27T01:16:08.599Z,101038.75
2023-02-27T01:17:11.632Z,101036.07
2023-02-27T01:18:14.560Z,101035.09
2023-02-27T01:19:17.442Z,101031.75
2023-02-27T01:20:20.347Z,101032.13
2023-02-27T01:21:24.024Z,101035.04
2023-02-27T01:22:27.017Z,101030.39
2023-02-27T01:23:30.182Z,101031.63
2023-02-27T01:24:33.635Z,101027.73
2023-02-27T01:25:36.536Z,101028.66
2023-02-27T01:26:39.510Z,101031.05
2023-02-27T01:27:42.396Z,101029.96
2023-02-27T01:28:45.259Z,101029.62
2023-02-27T01:29:48.706Z,101032.25
2023-02-27T01:30:52.345Z,101028.87
2023-02-27T01:31:55.288Z,101032.65
2023-02-27T01:32:58.211Z,101033.33
2023-02-27T01:34:01.322Z,101031.85
2023-02-27T01:35:04.659Z,101031.75
2023-02-27T01:36:08.243Z,101033.73
2023-02-27T01:37:11.120Z,101028.20
2023-02-27T01:38:14.072Z,101032.68
2023-02-27T01:39:17.100Z,101039.09
2023-02-27T01:40:20.093Z,101033.07
2023-02-27T01:41:23.282Z,101033.31
2023-02-27T01:42:28.321Z,101033.84
2023-02-27T01:43:33.145Z,101042.43
2023-02-27T01:45:18.966Z,101040.37
2023-02-27T01:46:22.159Z,101043.03
2023-02-27T01:47:26.162Z,101046.36
2023-02-27T01:48:37.445Z,101048.48
2023-02-27T01:49:40.378Z,101049.10
2023-02-27T01:50:49.793Z,101046.44
2023-02-27T01:52:05.787Z,101051.13
2023-02-27T01:53:09.217Z,101048.48
2023-02-27T01:54:19.358Z,101050.14
2023-02-27T01:55:24.745Z,101054.17
2023-02-27T01:56:31.957Z,101047.68
2023-02-27T01:57:36.153Z,101053.71
2023-02-27T01:58:39.207Z,101049.02
2023-02-27T01:59:42.520Z,101052.10
2023-02-27T02:00:46.750Z,101049.09
2023-02-27T02:01:50.861Z,101052.21
2023-02-27T02:03:00.607Z,101050.05
2023-02-27T02:04:18.799Z,101054.05
2023-02-27T02:05:23.031Z,101050.80
2023-02-27T02:06:26.378Z,101050.45
2023-02-27T02:07:30.163Z,101056.27
2023-02-27T02:08:39.766Z,101057.75
2023-02-27T02:09:52.330Z,101059.20
2023-02-27T02:10:57.924Z,101062.22
2023-02-27T02:12:01.273Z,101053.53
2023-02-27T02:13:04.197Z,101055.22
2023-02-27T02:14:10.915Z,101062.09
2023-02-27T02:15:17.089Z,101064.96
2023-02-27T02:16:41.818Z,101057.79
2023-02-27T02:17:51.180Z,101059.58
2023-02-27T02:18:58.291Z,101061.59
2023-02-27T02:20:22.981Z,101061.54
2023-02-27T02:21:31.858Z,101056.30
2023-02-27T02:23:11.344Z,101053.77
2023-02-27T02:24:20.247Z,101054.33
2023-02-27T02:25:41.540Z,101058.34
2023-02-27T02:26:54.120Z,101058.98
2023-02-27T02:28:18.332Z,101062.52
2023-02-27T02:29:36.135Z,101060.67
2023-02-27T02:30:53.887Z,101067.02
2023-02-27T02:32:10.818Z,101062.55
2023-02-27T02:33:38.297Z,101066.96
2023-02-27T02:35:12.654Z,101068.14
2023-02-27T02:36:30.521Z,101078.42
2023-02-27T02:37:48.636Z,101077.34
2023-02-27T02:38:56.800Z,101076.23
2023-02-27T02:40:02.525Z,101075.44
2023-02-27T02:41:15.572Z,101078.45
2023-02-27T02:42:29.362Z,101083.14
2023-02-27T02:44:08.041Z,101087.23
2023-02-27T02:45:31.361Z,101081.80
2023-02-27T02:46:46.253Z,101091.89
2023-02-27T02:48:14.200Z,101086.44
2023-02-27T02:50:16.330Z,101085.82
2023-02-27T02:51:37.130Z,101087.73
2023-02-27T02:52:51.896Z,101091.70
2023-02-27T02:54:15.576Z,101091.27
2023-02-27T02:55:29.350Z,101098.48
2023-02-27T02:56:56.931Z,101093.38
2023-02-27T02:58:18.800Z,101097.44
2023-02-27T02:59:33.342Z,101098.96
2023-02-27T03:00:46.691Z,101097.16
2023-02-27T03:02:07.030Z,101100.55
2023-02-27T03:03:28.002Z,101102.72
2023-02-27T03:04:52.029Z,101104.41
2023-02-27T03:06:10.002Z,101107.41
2023-02-27T03:07:23.858Z,101108.96
2023-02-27T03:08:31.084Z,101112.85
2023-02-27T03:09:40.118Z,101114.86
2023-02-27T03:10:50.358Z,101112.13
2023-02-27T03:11:57.452Z,101112.49
2023-02-27T03:13:28.221Z,101120.49
2023-02-27T03:14:50.777Z,101123.21
2023-02-27T03:16:16.162Z,101118.11
2023-02-27T03:17:30.813Z,101128.65
2023-02-27T03:18:43.974Z,101123.39
2023-02-27T03:19:57.551Z,101128.41
2023-02-27T03:21:14.162Z,101125.30
2023-02-27T03:22:23.739Z,101137.45
2023-02-27T03:23:42.849Z,101135.81
2023-02-27T03:24:54.109Z,101134.02
2023-02-27T03:25:58.621Z,101131.29
2023-02-27T03:27:05.206Z,101139.80
2023-02-27T03:28:11.510Z,101140.46
2023-02-27T03:29:24.046Z,101137.14
2023-02-27T03:30:27.308Z,101137.98
2023-02-27T03:31:38.589Z,101134.80
2023-02-27T03:33:01.544Z,101140.46
2023-02-27T03:34:15.924Z,101140.05
2023-02-27T03:35:19.216Z,101136.67
2023-02-27T03:36:37.813Z,101138.23
2023-02-27T03:38:05.068Z,101145.59
2023-02-27T03:39:14.820Z,101144.50
2023-02-27T03:40:25.882Z,101143.14
2023-02-27T03:41:54.693Z,101139.71
2023-02-27T03:43:21.648Z,101143.23
2023-02-27T03:44:40.546Z,101145.83
2023-02-27T03:45:56.425Z,101146.83
2023-02-27T03:47:00.020Z,101147.44
2023-02-27T03:48:04.203Z,101146.90
2023-02-27T03:49:07.786Z,101145.02
2023-02-27T03:50:11.588Z,101146.66
2023-02-27T03:51:18.505Z,101151.80
2023-02-27T03:52:23.543Z,101152.21
2023-02-27T03:53:36.017Z,101150.83
2023-02-27T03:54:44.923Z,101153.05
2023-02-27T03:55:49.108Z,101155.65
2023-02-27T03:57:04.721Z,101152.35
2023-02-27T03:58:07.719Z,101156.88
2023-02-27T03:59:11.102Z,101155.70
2023-02-27T04:00:20.825Z,101159.52
2023-02-27T04:01:23.873Z,101153.33
2023-02-27T04:02:27.505Z,101156.48
2023-02-27T04:03:37.281Z,101150.89
2023-02-27T04:04:41.336Z,101158.52
2023-02-27T04:05:47.185Z,101159.11
2023-02-27T04:07:24.304Z,101160.08
2023-02-27T04:08:38.261Z,101158.85
2023-02-27T04:10:38.423Z,101162.30
2023-02-27T04:12:12.014Z,101157.55
2023-02-27T04:13:33.571Z,101167.63
2023-02-27T04:14:59.413Z,101164.73
2023-02-27T04:16:30.735Z,101165.29
2023-02-27T04:17:49.604Z,101171.10
2023-02-27T04:19:11.166Z,101171.08
2023-02-27T04:20:45.152Z,101173.44
2023-02-27T04:21:56.687Z,101165.33
2023-02-27T04:23:17.343Z,101164.85
2023-02-27T04:24:44.837Z,101180.15
2023-02-27T04:25:57.719Z,101177.64
2023-02-27T04:27:32.769Z,101175.64
2023-02-27T04:28:53.950Z,101179.22
2023-02-27T04:30:08.478Z,101177.58
2023-02-27T04:31:20.490Z,101181.17
2023-02-27T04:32:30.841Z,101183.78
2023-02-27T04:33:57.398Z,101184.20
2023-02-27T04:35:07.386Z,101180.29
2023-02-27T04:36:27.249Z,101187.86
2023-02-27T04:37:43.624Z,101190.65
2023-02-27T04:39:03.198Z,101187.86
2023-02-27T04:40:11.340Z,101193.75
2023-02-27T04:41:25.385Z,101190.05
2023-02-27T04:42:32.478Z,101190.46
2023-02-27T04:43:38.459Z,101188.96
2023-02-27T04:44:42.852Z,101194.65
2023-02-27T04:45:47.008Z,101191.73
2023-02-27T04:46:52.647Z,101190.27
2023-02-27T04:48:07.215Z,101191.19
2023-02-27T04:49:29.819Z,101195.52
2023-02-27T04:50:40.195Z,101198.35
2023-02-27T04:51:51.983Z,101197.77
2023-02-27T04:53:03.619Z,101199.77
2023-02-27T04:54:14.324Z,101202.37
2023-02-27T04:55:30.621Z,101199.61
2023-02-27T04:56:43.651Z,101197.45
2023-02-27T04:57:56.868Z,101200.27
2023-02-27T04:59:09.400Z,101205.66
2023-02-27T05:00:13.935Z,101206.66
2023-02-27T05:01:40.097Z,101207.35
2023-02-27T05:02:47.711Z,101213.27
2023-02-27T05:03:53.820Z,101221.58
2023-02-27T05:05:00.428Z,101216.79
2023-02-27T05:06:03.876Z,101218.53
2023-02-27T05:07:11.084Z,101216.32
2023-02-27T05:08:20.879Z,101219.60
2023-02-27T05:09:39.867Z,101222.60
2023-02-27T05:10:51.250Z,101221.41
2023-02-27T05:12:03.709Z,101216.98
2023-02-27T05:13:18.138Z,101223.00
2023-02-27T05:14:30.462Z,101225.59
2023-02-27T05:15:47.257Z,101225.36
2023-02-27T05:17:08.372Z,101227.61
2023-02-27T05:18:16.930Z,101224.06
2023-02-27T05:19:21.220Z,101226.16
2023-02-27T05:20:29.781Z,101230.70
2023-02-27T05:21:36.779Z,101233.34
2023-02-27T05:23:08.591Z,101231.90
2023-02-27T05:24:28.953Z,101237.79
2023-02-27T05:26:24.493Z,101236.59
2023-02-27T05:27:49.754Z,101232.77
2023-02-27T05:29:06.467Z,101238.95
2023-02-27T05:30:19.406Z,101241.48
2023-02-27T05:31:33.446Z,101236.80
2023-02-27T05:32:55.363Z,101240.43
2023-02-27T05:34:30.718Z,101245.87
2023-02-27T05:35:49.410Z,101246.38
2023-02-27T05:37:04.969Z,101251.12
2023-02-27T05:38:19.726Z,101247.46
2023-02-27T05:39:26.020Z,101253.55
2023-02-27T05:40:35.900Z,101257.20
2023-02-27T05:41:50.880Z,101256.94
2023-02-27T05:43:11.004Z,101258.63
2023-02-27T05:44:25.880Z,101259.70
2023-02-27T05:45:32.734Z,101266.02
2023-02-27T05:46:39.784Z,101258.27
2023-02-27T05:47:49.560Z,101265.81
2023-02-27T05:48:57.393Z,101262.91
2023-02-27T05:50:12.507Z,101265.30
2023-02-27T05:51:17.199Z,101264.48
2023-02-27T05:52:24.449Z,101270.20
2023-02-27T05:53:33.722Z,101266.45
2023-02-27T05:54:45.990Z,101268.64
2023-02-27T05:55:52.530Z,101268.93
2023-02-27T05:56:59.056Z,101271.20
2023-02-27T05:58:18.711Z,101267.23
2023-02-27T05:59:52.100Z,101269.58
2023-02-27T06:01:00.407Z,101272.69
2023-02-27T06:02:03.639Z,101274.14
2023-02-27T06:03:07.011Z,101272.80
2023-02-27T06:04:10.278Z,101274.02
2023-02-27T06:05:19.575Z,101272.41
2023-02-27T06:06:23.069Z,101277.22
2023-02-27T06:07:45.350Z,101275.11
2023-02-27T06:09:06.117Z,101288.58
2023-02-27T06:10:14.025Z,101286.92
2023-02-27T06:11:18.136Z,101283.33
2023-02-27T06:12:21.006Z,101286.96
2023-02-27T06:13:24.489Z,101288.52
2023-02-27T06:14:28.141Z,101287.75
2023-02-27T06:15:31.001Z,101286.82
2023-02-27T06:16:38.182Z,101285.59
2023-02-27T06:17:41.306Z,101291.41
2023-02-27T06:18:44.173Z,101288.05
2023-02-27T06:19:47.069Z,101288.84
2023-02-27T06:20:50.180Z,101289.38
2023-02-27T06:21:53.345Z,101291.77
2023-02-27T06:22:56.224Z,101291.20
2023-02-27T06:23:59.152Z,101296.39
2023-02-27T06:25:02.440Z,101297.09
2023-02-27T06:26:05.789Z,101296.98
2023-02-27T06:27:08.662Z,101296.06
2023-02-27T06:28:11.926Z,101296.77
2023-02-27T06:29:14.804Z,101299.27
2023-02-27T06:30:17.910Z,101296.02
2023-02-27T06:31:20.888Z,101299.00
2023-02-27T06:32:25.499Z,101302.23
2023-02-27T06:33:28.587Z,101305.45
2023-02-27T06:34:31.582Z,101302.15
2023-02-27T06:35:34.531Z,101304.55
2023-02-27T06:36:37.546Z,101306.58
2023-02-27T06:37:40.421Z,101307.11
2023-02-27T06:38:43.332Z,101308.20
2023-02-27T06:39:46.140Z,101307.30
2023-02-27T06:40:51.219Z,101311.48
2023-02-27T06:41:54.344Z,101307.77
2023-02-27T06:42:57.188Z,101310.86
2023-02-27T06:44:00.473Z,101303.29
2023-02-27T06:45:03.596Z,101309.74
2023-02-27T06:46:06.459Z,101316.00
2023-02-27T06:47:09.640Z,101322.59
2023-02-27T06:48:13.211Z,101318.77
2023-02-27T06:49:16.199Z,101317.53
2023-02-27T06:50:19.134Z,101317.50
2023-02-27T06:51:22.119Z,101319.73
2023-02-27T06:52:24.925Z,101314.61
2023-02-27T06:53:27.929Z,101322.65
2023-02-27T06:54:31.857Z,101319.23
2023-02-27T06:55:34.842Z,101321.36
2023-02-27T06:56:37.778Z,101328.67
2023-02-27T06:57:40.633Z,101332.50
2023-02-27T06:58:43.447Z,101333.86
2023-02-27T06:59:46.299Z,101342.29
2023-02-27T07:00:49.110Z,101337.00
2023-02-27T07:01:52.149Z,101339.96
2023-02-27T07:02:55.036Z,101342.19
2023-02-27T07:03:57.978Z,101345.15
2023-02-27T07:05:03.160Z,101343.23
2023-02-27T07:06:12.130Z,101350.61
2023-02-27T07:07:35.977Z,101349.63
2023-02-27T07:08:38.019Z,101345.73
2023-02-27T07:10:00.850Z,101348.48
2023-02-27T07:11:03.870Z,101351.83
2023-02-27T07:12:08.066Z,101353.92
2023-02-27T07:13:10.918Z,101353.66
2023-02-27T07:14:17.125Z,101350.41
2023-02-27T07:15:20.293Z,101354.48
2023-02-27T07:16:23.330Z,101347.42
2023-02-27T07:17:26.259Z,101350.17
2023-02-27T07:18:29.175Z,101356.61
2023-02-27T07:19:33.819Z,101350.79
2023-02-27T07:20:37.178Z,101349.35
2023-02-27T07:21:40.082Z,101343.70
2023-02-27T07:22:42.962Z,101344.50
2023-02-27T07:23:45.918Z,101348.75
2023-02-27T07:24:48.877Z,101351.84
2023-02-27T07:25:51.846Z,101353.13
2023-02-27T07:26:55.014Z,101359.48
2023-02-27T07:27:57.949Z,101355.68
2023-02-27T07:29:00.865Z,101358.54
2023-02-27T07:30:04.189Z,101362.13
2023-02-27T07:31:07.221Z,101360.44
2023-02-27T07:32:11.518Z,101360.85
2023-02-27T07:33:14.493Z,101359.04
2023-02-27T07:34:17.488Z,101364.16
2023-02-27T07:35:20.401Z,101364.02
2023-02-27T07:36:23.697Z,101365.99
2023-02-27T07:37:28.281Z,101363.80
2023-02-27T07:38:32.898Z,101364.14
2023-02-27T07:39:35.798Z,101364.98
2023-02-27T07:40:38.687Z,101361.33
2023-02-27T07:41:42.128Z,101360.73
2023-02-27T07:42:53.057Z,101361.02
2023-02-27T07:43:56.250Z,101358.23
2023-02-27T07:45:00.353Z,101356.61
2023-02-27T07:46:04.162Z,101360.03
2023-02-27T07:47:07.072Z,101361.66
2023-02-27T07:48:11.138Z,101361.46
2023-02-27T07:49:14.359Z,101363.58
2023-02-27T07:50:17.634Z,101364.33
2023-02-27T07:51:20.900Z,101358.73
2023-02-27T07:52:24.962Z,101361.59
2023-02-27T07:53:28.068Z,101358.70
2023-02-27T07:54:31.166Z,101359.97
2023-02-27T07:55:34.670Z,101356.81
2023-02-27T07:56:37.696Z,101360.34
2023-02-27T07:57:40.763Z,101358.17
2023-02-27T07:58:43.599Z,101362.80
2023-02-27T07:59:46.479Z,101364.80
2023-02-27T08:00:49.376Z,101363.40
2023-02-27T08:01:52.626Z,101364.92
2023-02-27T08:02:55.512Z,101362.85
2023-02-27T08:03:58.513Z,101366.50
2023-02-27T08:05:01.435Z,101364.83
2023-02-27T08:06:04.429Z,101370.13
2023-02-27T08:07:08.278Z,101364.70
2023-02-27T08:08:11.147Z,101365.02
2023-02-27T08:09:14.295Z,101371.62
2023-02-27T08:10:17.513Z,101369.26
2023-02-27T08:11:20.347Z,101365.60
2023-02-27T08:12:23.316Z,101365.34
2023-02-27T08:13:48.555Z,101366.80
2023-02-27T08:14:49.100Z,101374.44
2023-02-27T08:15:52.077Z,101370.77
2023-02-27T08:16:54.944Z,101370.66
2023-02-27T08:17:58.348Z,101373.06
2023-02-27T08:19:01.439Z,101374.91
2023-02-27T08:20:05.213Z,101374.27
2023-02-27T08:21:08.101Z,101370.60
2023-02-27T08:22:12.152Z,101376.87
2023-02-27T08:23:15.040Z,101375.73
2023-02-27T08:24:18.059Z,101378.13
2023-02-27T08:25:21.643Z,101377.98
2023-02-27T08:26:24.546Z,101377.31
2023-02-27T08:27:27.478Z,101379.11
2023-02-27T08:28:30.430Z,101381.98
2023-02-27T08:29:33.886Z,101386.45
2023-02-27T08:30:36.766Z,101381.64
2023-02-27T08:31:39.754Z,101388.23
2023-02-27T08:32:43.342Z,101380.23
2023-02-27T08:33:46.255Z,101379.65
2023-02-27T08:34:49.109Z,101382.92
2023-02-27T08:35:52.203Z,101380.65
2023-02-27T08:36:55.538Z,101384.81
2023-02-27T08:37:58.494Z,101383.30
2023-02-27T08:39:01.389Z,101388.29
2023-02-27T08:40:07.221Z,101389.00
2023-02-27T08:41:10.112Z,101393.51
2023-02-27T08:42:13.046Z,101395.80
2023-02-27T08:43:15.867Z,101394.29
2023-02-27T08:44:19.663Z,101387.02
2023-02-27T08:45:22.611Z,101390.78
2023-02-27T08:46:26.013Z,101396.04
2023-02-27T08:47:29.079Z,101392.64
2023-02-27T08:48:32.457Z,101394.91
2023-02-27T08:49:35.491Z,101393.10
2023-02-27T08:50:39.647Z,101397.11
2023-02-27T08:51:42.530Z,101397.27
2023-02-27T08:52:45.444Z,101399.17
2023-02-27T08:53:48.405Z,101399.09
2023-02-27T08:54:51.247Z,101396.21
2023-02-27T08:55:54.133Z,101398.70
2023-02-27T08:56:56.980Z,101403.09
2023-02-27T08:57:59.869Z,101405.20
2023-02-27T08:59:02.930Z,101402.92
2023-02-27T09:00:07.561Z,101410.43
2023-02-27T09:01:10.546Z,101409.79
2023-02-27T09:02:14.010Z,101411.83
2023-02-27T09:03:17.290Z,101408.97
2023-02-27T09:04:21.128Z,101421.63
2023-02-27T09:05:24.126Z,101414.45
2023-02-27T09:06:27.391Z,101416.10
2023-02-27T09:07:30.594Z,101413.00
2023-02-27T09:08:33.581Z,101418.75
2023-02-27T09:09:36.460Z,101416.10
2023-02-27T09:10:39.649Z,101425.80
2023-02-27T09:11:42.565Z,101432.02
2023-02-27T09:12:45.496Z,101423.59
2023-02-27T09:13:48.467Z,101431.24
2023-02-27T09:14:51.279Z,101425.11
2023-02-27T09:15:54.449Z,101421.64
2023-02-27T09:16:58.418Z,101427.90
2023-02-27T09:18:03.290Z,101439.58
2023-02-27T09:19:06.896Z,101436.23
2023-02-27T09:20:10.829Z,101436.91
2023-02-27T09:21:14.252Z,101430.52
2023-02-27T09:22:18.397Z,101436.92
2023-02-27T09:23:21.236Z,101439.35
2023-02-27T09:24:24.205Z,101433.74
2023-02-27T09:25:27.800Z,101438.04
2023-02-27T09:26:42.825Z,101444.13
2023-02-27T09:27:48.747Z,101446.08
2023-02-27T09:28:51.707Z,101447.10
2023-02-27T09:29:56.403Z,101451.96
2023-02-27T09:31:05.743Z,101452.58
2023-02-27T09:32:08.956Z,101448.22
2023-02-27T09:33:12.020Z,101454.08
2023-02-27T09:34:14.948Z,101454.25
2023-02-27T09:35:20.551Z,101450.94
2023-02-27T09:36:24.623Z,101451.44
2023-02-27T09:37:27.650Z,101456.41
2023-02-27T09:38:30.490Z,101453.36
2023-02-27T09:39:33.393Z,101449.55
2023-02-27T09:40:42.026Z,101458.52
2023-02-27T09:42:05.504Z,101459.59
2023-02-27T09:43:15.809Z,101467.16
2023-02-27T09:44:18.624Z,101471.63
2023-02-27T09:45:25.775Z,101466.86
2023-02-27T09:46:29.594Z,101477.77
2023-02-27T09:47:40.080Z,101469.60
2023-02-27T09:48:47.730Z,101470.56
2023-02-27T09:49:59.327Z,101470.56
2023-02-27T09:51:02.893Z,101476.00
2023-02-27T09:52:05.738Z,101471.88
2023-02-27T09:53:22.721Z,101472.89
2023-02-27T09:54:31.469Z,101481.61
2023-02-27T09:55:40.299Z,101477.56
2023-02-27T09:56:51.248Z,101477.85
2023-02-27T09:58:20.001Z,101478.20
2023-02-27T09:59:47.683Z,101488.30
2023-02-27T10:01:28.356Z,101490.37
2023-02-27T10:02:53.028Z,101490.11
2023-02-27T10:04:14.466Z,101488.36
2023-02-27T10:05:42.520Z,101487.64
2023-02-27T10:06:52.172Z,101484.67
2023-02-27T10:08:26.523Z,101489.15
2023-02-27T10:09:32.438Z,101489.45
2023-02-27T10:11:00.578Z,101493.67
2023-02-27T10:12:07.696Z,101494.70
2023-02-27T10:13:30.674Z,101493.48
2023-02-27T10:14:33.470Z,101486.76
2023-02-27T10:15:41.909Z,101484.41
2023-02-27T10:16:52.173Z,101483.09
2023-02-27T10:18:01.550Z,101491.13
2023-02-27T10:19:15.680Z,101494.16
2023-02-27T10:20:29.266Z,101494.82
2023-02-27T10:21:44.015Z,101503.41
2023-02-27T10:22:49.132Z,101496.02
2023-02-27T10:24:02.256Z,101498.52
2023-02-27T10:25:29.748Z,101498.77
2023-02-27T10:26:42.356Z,101501.13
2023-02-27T10:27:49.014Z,101501.09
2023-02-27T10:28:52.224Z,101501.85
2023-02-27T10:30:11.153Z,101499.17
2023-02-27T10:31:31.695Z,101497.83
2023-02-27T10:32:36.349Z,101498.52
2023-02-27T10:33:42.041Z,101497.33
2023-02-27T10:35:05.618Z,101496.84
2023-02-27T10:36:18.083Z,101497.92
2023-02-27T10:37:30.498Z,101502.93
2023-02-27T10:38:44.761Z,101504.88
2023-02-27T10:40:00.482Z,101503.42
2023-02-27T10:41:04.790Z,101503.09
2023-02-27T10:42:11.807Z,101506.56
2023-02-27T10:43:19.324Z,101505.00
2023-02-27T10:44:24.604Z,101503.93
2023-02-27T10:45:27.639Z,101500.70
2023-02-27T10:46:32.999Z,101506.08
2023-02-27T10:47:38.924Z,101498.61
2023-02-27T10:48:41.966Z,101500.56
2023-02-27T10:49:45.124Z,101501.57
2023-02-27T10:50:52.584Z,101497.57
2023-02-27T10:52:07.102Z,101506.44
2023-02-27T10:53:24.817Z,101506.00
2023-02-27T10:54:31.533Z,101502.73
2023-02-27T10:55:38.349Z,101502.08
2023-02-27T10:56:44.679Z,101503.42
2023-02-27T10:57:47.659Z,101505.78
2023-02-27T10:59:16.878Z,101502.80
2023-02-27T11:00:44.100Z,101503.20
2023-02-27T11:01:56.725Z,101507.84
2023-02-27T11:03:00.111Z,101514.55
2023-02-27T11:04:03.109Z,101513.55
2023-02-27T11:05:31.381Z,101519.10
2023-02-27T11:06:34.344Z,101512.85
2023-02-27T11:07:38.756Z,101517.81
2023-02-27T11:08:41.563Z,101519.85
2023-02-27T11:09:59.945Z,101515.52
2023-02-27T11:11:09.539Z,101515.09
2023-02-27T11:12:27.043Z,101518.34
2023-02-27T11:13:33.560Z,101518.19
2023-02-27T11:14:49.687Z,101524.02
2023-02-27T11:16:07.300Z,101521.54
2023-02-27T11:17:22.344Z,101517.77
2023-02-27T11:18:30.278Z,101519.98
2023-02-27T11:19:35.031Z,101520.86
2023-02-27T11:20:40.732Z,101519.70
2023-02-27T11:22:15.054Z,101521.38
2023-02-27T11:23:21.897Z,101522.38
2023-02-27T11:24:24.767Z,101522.08
2023-02-27T11:25:27.590Z,101523.82
2023-02-27T11:26:35.539Z,101527.20
2023-02-27T11:27:38.596Z,101526.89
2023-02-27T11:28:42.506Z,101529.56
2023-02-27T11:29:55.878Z,101528.83
2023-02-27T11:31:14.931Z,101530.02
2023-02-27T11:32:20.194Z,101533.89
2023-02-27T11:33:24.544Z,101532.98
2023-02-27T11:34:38.968Z,101532.31
2023-02-27T11:35:41.955Z,101536.71
2023-02-27T11:36:47.504Z,101533.68
2023-02-27T11:37:52.614Z,101532.64
2023-02-27T11:38:56.957Z,101531.98
2023-02-27T11:40:10.824Z,101530.41
2023-02-27T11:41:14.379Z,101531.83
2023-02-27T11:42:30.819Z,101532.95
2023-02-27T11:43:52.546Z,101533.96
2023-02-27T11:45:03.423Z,101531.69
2023-02-27T11:46:34.361Z,101533.06
2023-02-27T11:47:40.581Z,101532.14
2023-02-27T11:49:03.229Z,101531.67
2023-02-27T11:50:09.340Z,101530.02
2023-02-27T11:51:24.616Z,101528.06
2023-02-27T11:52:41.117Z,101529.98
2023-02-27T11:54:09.643Z,101528.79
2023-02-27T11:55:21.053Z,101528.23
2023-02-27T11:56:34.139Z,101527.89
2023-02-27T11:57:41.474Z,101529.91
2023-02-27T11:58:56.375Z,101528.52
2023-02-27T12:00:14.263Z,101530.55
2023-02-27T12:01:47.082Z,101526.80
2023-02-27T12:03:22.056Z,101528.34
2023-02-27T12:04:33.741Z,101527.25
2023-02-27T12:06:00.432Z,101528.84
2023-02-27T12:07:13.054Z,101526.08
2023-02-27T12:08:34.778Z,101521.51
2023-02-27T12:09:46.926Z,101525.81
2023-02-27T12:11:18.539Z,101523.93
2023-02-27T12:12:46.366Z,101526.75
2023-02-27T12:13:54.542Z,101527.12
2023-02-27T12:15:05.819Z,101531.31
2023-02-27T12:16:32.421Z,101533.52
2023-02-27T12:17:45.015Z,101533.34
2023-02-27T12:18:57.052Z,101534.92
2023-02-27T12:20:41.970Z,101532.05
2023-02-27T12:21:50.087Z,101526.94
2023-02-27T12:22:54.579Z,101532.59
2023-02-27T12:24:07.852Z,101536.23
2023-02-27T12:25:22.214Z,101537.42
2023-02-27T12:26:30.227Z,101536.46
2023-02-27T12:27:49.241Z,101536.08
2023-02-27T12:28:57.961Z,101544.70
2023-02-27T12:30:07.753Z,101544.59
2023-02-27T12:31:17.228Z,101539.34
2023-02-27T12:32:27.992Z,101537.78
2023-02-27T12:33:52.919Z,101534.92
2023-02-27T12:35:14.176Z,101531.46
2023-02-27T12:36:17.099Z,101538.66
2023-02-27T12:37:29.966Z,101536.04
2023-02-27T12:38:33.153Z,101541.96
2023-02-27T12:39:37.052Z,101534.85
2023-02-27T12:40:53.309Z,101536.89
2023-02-27T12:42:01.844Z,101534.50
2023-02-27T12:43:19.271Z,101544.83
2023-02-27T12:44:38.036Z,101542.83
2023-02-27T12:46:05.868Z,101552.36
2023-02-27T12:47:14.397Z,101550.33
2023-02-27T12:48:55.084Z,101551.83
2023-02-27T12:50:05.483Z,101553.11
2023-02-27T12:51:29.262Z,101546.98
2023-02-27T12:52:43.138Z,101547.87
2023-02-27T12:54:00.532Z,101543.77
2023-02-27T12:55:21.044Z,101548.22
2023-02-27T12:56:29.253Z,101550.42
2023-02-27T12:57:45.990Z,101551.27
2023-02-27T12:59:13.740Z,101550.48
2023-02-27T13:00:20.329Z,101554.57
2023-02-27T13:01:35.450Z,101553.40
2023-02-27T13:03:00.957Z,101552.68
2023-02-27T13:04:18.526Z,101560.95
2023-02-27T13:05:51.039Z,101559.34
2023-02-27T13:07:13.544Z,101565.57
2023-02-27T13:08:53.856Z,101562.56
2023-02-27T13:10:19.295Z,101559.54
2023-02-27T13:11:51.550Z,101562.14
2023-02-27T13:13:17.460Z,101568.03
2023-02-27T13:14:44.592Z,101566.06
2023-02-27T13:15:55.614Z,101566.64